createdAt,value
2022-12-31T00:02:23.683Z,7.20
2022-12-31T00:04:51.303Z,7.18
2022-12-31T00:07:18.453Z,6.92
2022-12-31T00:09:45.682Z,6.67
2022-12-31T00:12:13.193Z,6.81
2022-12-31T00:14:40.356Z,6.91
2022-12-31T00:17:07.597Z,6.86
2022-12-31T00:19:35.074Z,6.74
2022-12-31T00:22:02.241Z,6.59
2022-12-31T00:24:31.180Z,6.63
2022-12-31T00:26:58.701Z,6.51
2022-12-31T00:29:25.907Z,6.50
2022-12-31T00:31:53.071Z,6.80
2022-12-31T00:34:20.524Z,6.93
2022-12-31T00:36:47.689Z,6.84
2022-12-31T00:39:14.903Z,7.11
2022-12-31T00:41:44.065Z,7.05
2022-12-31T00:44:12.415Z,7.04
2022-12-31T00:49:06.359Z,7.08
2022-12-31T00:51:33.605Z,6.84
2022-12-31T00:54:03.482Z,6.75
2022-12-31T00:56:31.612Z,6.69
2022-12-31T00:58:59.647Z,6.59
2022-12-31T01:01:35.206Z,6.53
2022-12-31T01:04:09.862Z,6.52
2022-12-31T01:06:37.267Z,6.87
2022-12-31T01:09:06.562Z,6.97
2022-12-31T01:11:34.036Z,6.70
2022-12-31T01:14:02.704Z,6.59
2022-12-31T01:16:30.095Z,6.43
2022-12-31T01:18:59.364Z,6.36
2022-12-31T01:21:27.128Z,6.25
2022-12-31T01:23:54.557Z,6.31
2022-12-31T01:26:21.853Z,6.39
2022-12-31T01:28:49.177Z,6.30
2022-12-31T01:31:20.066Z,6.42
2022-12-31T01:33:47.685Z,6.49
2022-12-31T01:36:21.875Z,6.41
2022-12-31T01:38:54.117Z,6.79
2022-12-31T01:41:27.234Z,6.72
2022-12-31T01:43:55.739Z,6.51
2022-12-31T01:46:36.884Z,6.55
2022-12-31T01:50:00.545Z,5.94
2022-12-31T01:52:31.541Z,6.30
2022-12-31T01:55:10.061Z,6.42
2022-12-31T01:57:37.604Z,6.58
2022-12-31T02:00:06.187Z,6.73
2022-12-31T02:02:34.145Z,6.73
2022-12-31T02:05:03.493Z,6.97
2022-12-31T02:07:30.788Z,6.77
2022-12-31T02:09:57.946Z,6.59
2022-12-31T02:12:25.404Z,6.62
2022-12-31T02:14:53.829Z,6.68
2022-12-31T02:17:33.063Z,6.76
2022-12-31T02:20:29.358Z,6.84
2022-12-31T02:23:38.904Z,6.96
2022-12-31T02:26:33.100Z,7.24
2022-12-31T02:29:26.520Z,7.26
2022-12-31T02:32:04.254Z,7.41
2022-12-31T02:34:37.276Z,7.23
2022-12-31T02:37:08.431Z,6.84
2022-12-31T02:39:36.542Z,6.85
2022-12-31T02:42:03.879Z,6.96
2022-12-31T02:44:35.570Z,6.53
2022-12-31T02:47:02.574Z,6.49
2022-12-31T02:49:54.521Z,6.55
2022-12-31T02:52:36.389Z,6.31
2022-12-31T02:55:28.181Z,6.28
2022-12-31T02:58:08.191Z,6.52
2022-12-31T03:01:01.397Z,6.50
2022-12-31T03:03:29.231Z,6.43
2022-12-31T03:05:57.219Z,6.48
2022-12-31T03:08:27.109Z,6.33
2022-12-31T03:10:56.845Z,6.38
2022-12-31T03:13:24.664Z,6.37
2022-12-31T03:15:51.834Z,6.31
2022-12-31T03:18:40.129Z,6.23
2022-12-31T03:21:31.332Z,6.35
2022-12-31T03:24:17.283Z,6.34
2022-12-31T03:26:44.414Z,6.24
2022-12-31T03:29:11.864Z,6.03
2022-12-31T03:31:39.012Z,5.87
2022-12-31T03:34:06.086Z,6.02
2022-12-31T03:36:33.411Z,6.11
2022-12-31T03:39:00.480Z,6.03
2022-12-31T03:41:27.543Z,6.21
2022-12-31T03:43:54.927Z,6.33
2022-12-31T03:46:22.089Z,6.33
2022-12-31T03:48:49.187Z,6.23
2022-12-31T03:51:16.849Z,6.29
2022-12-31T03:53:43.958Z,6.54
2022-12-31T03:56:11.032Z,6.59
2022-12-31T03:58:38.513Z,6.62
2022-12-31T04:01:05.705Z,6.67
2022-12-31T04:03:33.132Z,6.78
2022-12-31T04:06:00.253Z,6.80
2022-12-31T04:08:27.379Z,6.72
2022-12-31T04:10:54.773Z,6.51
2022-12-31T04:13:21.862Z,6.64
2022-12-31T04:15:52.133Z,6.74
2022-12-31T04:18:19.505Z,6.64
2022-12-31T04:20:46.593Z,6.56
2022-12-31T04:23:13.662Z,6.61
2022-12-31T04:25:41.026Z,6.77
2022-12-31T04:28:11.238Z,6.70
2022-12-31T04:30:38.289Z,6.66
2022-12-31T04:33:05.662Z,6.58
2022-12-31T04:35:32.732Z,6.60
2022-12-31T04:37:59.772Z,6.67
2022-12-31T04:40:27.208Z,6.56
2022-12-31T04:42:54.324Z,6.56
2022-12-31T04:45:21.434Z,6.60
2022-12-31T04:47:48.805Z,6.49
2022-12-31T04:50:15.880Z,6.57
2022-12-31T04:52:43.201Z,6.40
2022-12-31T04:55:11.374Z,6.43
2022-12-31T04:57:38.935Z,6.56
2022-12-31T05:00:06.664Z,6.54
2022-12-31T05:02:34.190Z,6.46
2022-12-31T05:05:01.383Z,6.54
2022-12-31T05:07:28.473Z,6.63
2022-12-31T05:09:55.795Z,6.63
2022-12-31T05:12:22.856Z,6.48
2022-12-31T05:14:49.949Z,6.65
2022-12-31T05:17:17.357Z,6.74
2022-12-31T05:19:44.451Z,6.42
2022-12-31T05:22:29.461Z,6.29
2022-12-31T05:25:00.532Z,6.33
2022-12-31T05:27:31.004Z,6.47
2022-12-31T05:29:59.007Z,6.51
2022-12-31T05:32:26.369Z,6.52
2022-12-31T05:34:53.652Z,6.65
2022-12-31T05:37:21.031Z,6.71
2022-12-31T05:39:48.091Z,6.64
2022-12-31T05:42:15.952Z,6.49
2022-12-31T05:44:43.295Z,6.55
2022-12-31T05:47:10.360Z,6.61
2022-12-31T05:49:37.417Z,6.46
2022-12-31T05:52:05.076Z,6.47
2022-12-31T05:54:32.140Z,6.50
2022-12-31T05:56:59.766Z,6.51
2022-12-31T05:59:27.179Z,6.56
2022-12-31T06:01:54.337Z,6.68
2022-12-31T06:04:21.770Z,6.65
2022-12-31T06:06:48.922Z,6.54
2022-12-31T06:09:17.729Z,6.53
2022-12-31T06:11:46.483Z,6.45
2022-12-31T06:14:13.849Z,6.43
2022-12-31T06:16:41.351Z,6.46
2022-12-31T06:19:09.534Z,6.51
2022-12-31T06:21:36.576Z,6.47
2022-12-31T06:24:03.809Z,6.47
2022-12-31T06:26:31.194Z,6.42
2022-12-31T06:28:58.276Z,6.41
2022-12-31T06:31:25.402Z,6.49
2022-12-31T06:33:52.752Z,6.45
2022-12-31T06:36:21.788Z,6.44
2022-12-31T06:38:49.198Z,6.50
2022-12-31T06:41:18.311Z,6.41
2022-12-31T06:43:45.855Z,6.42
2022-12-31T06:46:16.265Z,6.54
2022-12-31T06:48:44.943Z,6.40
2022-12-31T06:51:17.349Z,6.35
2022-12-31T06:53:46.220Z,6.39
2022-12-31T06:56:19.531Z,6.47
2022-12-31T06:58:47.449Z,6.61
2022-12-31T07:01:41.937Z,6.50
2022-12-31T07:04:40.681Z,6.54
2022-12-31T07:07:22.100Z,6.56
2022-12-31T07:10:13.649Z,6.40
2022-12-31T07:13:18.276Z,6.30
2022-12-31T07:16:07.544Z,6.42
2022-12-31T07:18:48.358Z,6.46
2022-12-31T07:21:17.986Z,6.61
2022-12-31T07:23:45.607Z,6.49
2022-12-31T07:26:25.398Z,6.49
2022-12-31T07:29:17.227Z,6.52
2022-12-31T07:32:02.492Z,6.54
2022-12-31T07:34:37.436Z,6.75
2022-12-31T07:37:21.421Z,6.67
2022-12-31T07:40:05.975Z,6.79
2022-12-31T07:42:51.344Z,7.19
2022-12-31T07:45:38.027Z,7.11
2022-12-31T07:48:18.912Z,7.04
2022-12-31T07:50:46.523Z,6.96
2022-12-31T07:53:13.964Z,6.96
2022-12-31T07:55:41.570Z,6.93
2022-12-31T07:58:20.430Z,6.71
2022-12-31T08:00:48.457Z,6.90
2022-12-31T08:03:34.616Z,6.89
2022-12-31T08:06:26.264Z,6.80
2022-12-31T08:09:00.445Z,7.09
2022-12-31T08:11:42.615Z,7.13
2022-12-31T08:14:12.278Z,6.94
2022-12-31T08:16:39.761Z,7.00
2022-12-31T08:19:07.566Z,6.90
2022-12-31T08:21:48.932Z,6.96
2022-12-31T08:24:35.800Z,6.93
2022-12-31T08:27:23.023Z,6.88
2022-12-31T08:29:56.698Z,6.97
2022-12-31T08:32:43.809Z,7.07
2022-12-31T08:35:26.397Z,7.17
2022-12-31T08:38:07.141Z,7.19
2022-12-31T08:40:34.124Z,7.04
2022-12-31T08:43:10.495Z,6.89
2022-12-31T08:45:46.741Z,6.98
2022-12-31T08:48:27.455Z,7.16
2022-12-31T08:50:54.872Z,7.20
2022-12-31T08:53:22.730Z,7.38
2022-12-31T08:55:55.770Z,7.19
2022-12-31T08:58:41.971Z,6.96
2022-12-31T09:01:09.766Z,6.91
2022-12-31T09:03:49.187Z,7.08
2022-12-31T09:06:38.579Z,6.94
2022-12-31T09:09:21.215Z,7.15
2022-12-31T09:11:54.885Z,7.00
2022-12-31T09:14:43.372Z,6.82
2022-12-31T09:17:10.385Z,6.82
2022-12-31T09:19:37.832Z,7.05
2022-12-31T09:22:05.820Z,7.08
2022-12-31T09:24:33.219Z,7.13
2022-12-31T09:27:22.458Z,7.33
2022-12-31T09:30:09.537Z,7.41
2022-12-31T09:33:00.742Z,7.48
2022-12-31T09:35:47.281Z,7.55
2022-12-31T09:38:43.020Z,7.59
2022-12-31T09:41:37.751Z,7.59
2022-12-31T09:44:23.791Z,7.58
2022-12-31T09:47:17.573Z,7.67
2022-12-31T09:50:15.946Z,7.71
2022-12-31T09:53:13.425Z,7.89
2022-12-31T09:56:11.592Z,7.75
2022-12-31T09:58:56.753Z,7.80
2022-12-31T10:01:45.700Z,7.85
2022-12-31T10:04:40.063Z,7.90
2022-12-31T10:07:19.277Z,7.94
2022-12-31T10:09:50.203Z,7.80
2022-12-31T10:12:42.545Z,7.77
2022-12-31T10:15:28.336Z,7.81
2022-12-31T10:18:01.241Z,7.80
2022-12-31T10:20:47.298Z,7.95
2022-12-31T10:23:38.717Z,7.99
2022-12-31T10:26:18.137Z,7.91
2022-12-31T10:28:45.202Z,7.96
2022-12-31T10:31:16.959Z,7.89
2022-12-31T10:34:17.585Z,8.08
2022-12-31T10:37:05.362Z,8.49
2022-12-31T10:39:49.991Z,8.32
2022-12-31T10:42:29.340Z,8.13
2022-12-31T10:45:20.746Z,8.28
2022-12-31T10:48:25.535Z,8.41
2022-12-31T10:51:05.168Z,8.52
2022-12-31T10:54:04.891Z,8.70
2022-12-31T10:57:01.100Z,8.60
2022-12-31T10:59:58.264Z,8.41
2022-12-31T11:02:28.523Z,8.26
2022-12-31T11:05:14.735Z,8.26
2022-12-31T11:08:20.782Z,8.31
2022-12-31T11:11:18.059Z,8.18
2022-12-31T11:13:45.038Z,8.14
2022-12-31T11:16:20.644Z,8.10
2022-12-31T11:18:51.737Z,7.94
2022-12-31T11:21:43.952Z,8.05
2022-12-31T11:24:13.880Z,8.20
2022-12-31T11:27:20.151Z,8.24
2022-12-31T11:30:25.160Z,8.29
2022-12-31T11:33:20.056Z,8.30
2022-12-31T11:36:00.562Z,8.37
2022-12-31T11:38:38.514Z,8.47
2022-12-31T11:41:08.007Z,8.46
2022-12-31T11:43:41.032Z,8.49
2022-12-31T11:46:21.609Z,8.65
2022-12-31T11:48:52.003Z,8.59
2022-12-31T11:51:33.970Z,8.70
2022-12-31T11:54:13.665Z,8.91
2022-12-31T11:56:42.202Z,8.80
2022-12-31T11:59:17.126Z,8.95
2022-12-31T12:01:52.776Z,8.98
2022-12-31T12:04:20.005Z,8.92
2022-12-31T12:06:48.584Z,8.95
2022-12-31T12:09:22.531Z,8.81
2022-12-31T12:11:59.809Z,8.82
2022-12-31T12:14:38.360Z,8.90
2022-12-31T12:17:32.237Z,8.97
2022-12-31T12:20:10.859Z,8.98
2022-12-31T12:22:51.887Z,9.04
2022-12-31T12:25:21.714Z,9.29
2022-12-31T12:27:49.251Z,9.32
2022-12-31T12:30:27.994Z,9.25
2022-12-31T12:33:02.050Z,9.38
2022-12-31T12:35:31.870Z,9.51
2022-12-31T12:38:06.007Z,8.90
2022-12-31T12:40:34.626Z,8.89
2022-12-31T12:43:02.896Z,9.16
2022-12-31T12:45:52.383Z,9.27
2022-12-31T12:48:31.359Z,9.45
2022-12-31T12:50:59.883Z,9.46
2022-12-31T12:53:27.254Z,9.36
2022-12-31T12:56:06.772Z,9.26
2022-12-31T12:58:52.153Z,9.37
2022-12-31T13:01:30.975Z,9.37
2022-12-31T13:04:35.212Z,9.50
2022-12-31T13:07:14.812Z,9.66
2022-12-31T13:09:42.103Z,9.71
2022-12-31T13:12:56.783Z,9.57
2022-12-31T13:15:33.584Z,9.65
2022-12-31T13:18:04.051Z,9.44
2022-12-31T13:20:50.429Z,9.19
2022-12-31T13:23:49.532Z,9.03
2022-12-31T13:26:24.333Z,9.19
2022-12-31T13:28:52.907Z,9.24
2022-12-31T13:31:25.056Z,9.26
2022-12-31T13:33:59.420Z,9.21
2022-12-31T13:36:28.705Z,9.35
2022-12-31T13:38:58.321Z,9.45
2022-12-31T13:41:26.935Z,9.32
2022-12-31T13:44:20.588Z,9.46
2022-12-31T13:47:03.111Z,9.31
2022-12-31T13:49:36.339Z,9.33
2022-12-31T13:52:22.033Z,9.49
2022-12-31T13:55:18.584Z,9.54
2022-12-31T13:58:08.633Z,9.54
2022-12-31T14:00:44.228Z,9.10
2022-12-31T14:03:38.383Z,9.25
2022-12-31T14:06:11.300Z,9.27
2022-12-31T14:08:40.152Z,9.30
2022-12-31T14:11:19.092Z,9.32
2022-12-31T14:14:13.643Z,9.30
2022-12-31T14:17:21.081Z,9.38
2022-12-31T14:20:06.737Z,9.29
2022-12-31T14:22:54.407Z,9.31
2022-12-31T14:25:47.941Z,9.39
2022-12-31T14:28:24.275Z,9.46
2022-12-31T14:30:56.406Z,9.49
2022-12-31T14:33:30.999Z,9.44
2022-12-31T14:36:10.967Z,9.54
2022-12-31T14:38:56.492Z,9.58
2022-12-31T14:41:53.161Z,9.51
2022-12-31T14:44:44.917Z,9.58
2022-12-31T14:47:30.613Z,9.25
2022-12-31T14:50:09.777Z,9.31
2022-12-31T14:53:06.242Z,9.33
2022-12-31T14:55:36.073Z,9.26
2022-12-31T14:58:28.882Z,9.15
2022-12-31T15:01:01.699Z,9.00
2022-12-31T15:03:31.902Z,9.14
2022-12-31T15:06:13.878Z,8.98
2022-12-31T15:09:19.937Z,8.92
2022-12-31T15:11:55.875Z,8.68
2022-12-31T15:14:38.334Z,8.81
2022-12-31T15:17:31.135Z,8.76
2022-12-31T15:20:20.443Z,8.69
2022-12-31T15:22:49.323Z,8.58
2022-12-31T15:25:21.662Z,8.64
2022-12-31T15:27:49.033Z,8.52
2022-12-31T15:30:28.657Z,8.55
2022-12-31T15:32:57.777Z,8.64
2022-12-31T15:35:43.983Z,8.68
2022-12-31T15:38:11.063Z,8.63
2022-12-31T15:40:50.410Z,8.55
2022-12-31T15:43:26.636Z,8.44
2022-12-31T15:45:55.243Z,8.56
2022-12-31T15:48:32.517Z,8.66
2022-12-31T15:51:01.408Z,8.54
2022-12-31T15:53:39.339Z,8.32
2022-12-31T15:56:08.075Z,8.22
2022-12-31T15:58:36.796Z,8.25
2022-12-31T16:01:13.015Z,8.21
2022-12-31T16:03:55.732Z,8.15
2022-12-31T16:06:23.316Z,8.15
2022-12-31T16:08:50.765Z,8.10
2022-12-31T16:11:18.291Z,8.12
2022-12-31T16:13:50.001Z,8.12
2022-12-31T16:16:28.201Z,8.11
2022-12-31T16:18:56.296Z,8.16
2022-12-31T16:21:28.163Z,8.29
2022-12-31T16:23:57.999Z,8.25
2022-12-31T16:26:30.267Z,8.17
2022-12-31T16:29:00.197Z,8.05
2022-12-31T16:31:28.703Z,7.96
2022-12-31T16:34:13.584Z,8.02
2022-12-31T16:36:41.593Z,7.90
2022-12-31T16:39:38.223Z,7.79
2022-12-31T16:42:14.513Z,7.57
2022-12-31T16:44:41.942Z,7.53
2022-12-31T16:47:14.071Z,7.35
2022-12-31T16:49:41.512Z,7.21
2022-12-31T16:52:31.264Z,7.13
2022-12-31T16:54:59.204Z,6.97
2022-12-31T16:57:29.327Z,6.82
2022-12-31T17:00:06.998Z,6.72
2022-12-31T17:02:45.614Z,6.71
2022-12-31T17:05:18.770Z,6.71
2022-12-31T17:07:46.235Z,6.64
2022-12-31T17:10:27.747Z,6.52
2022-12-31T17:15:48.296Z,6.51
2022-12-31T17:18:21.112Z,6.50
2022-12-31T17:20:50.519Z,6.47
2022-12-31T17:23:24.087Z,6.54
2022-12-31T17:25:58.911Z,6.53
2022-12-31T17:28:27.752Z,6.59
2022-12-31T17:31:00.235Z,6.59
2022-12-31T17:33:28.909Z,6.70
2022-12-31T17:36:21.451Z,6.75
2022-12-31T17:38:48.984Z,6.55
2022-12-31T17:41:26.663Z,6.56
2022-12-31T17:43:55.474Z,6.53
2022-12-31T17:46:23.780Z,6.58
2022-12-31T17:48:58.369Z,6.72
2022-12-31T17:51:25.917Z,6.87
2022-12-31T17:53:53.090Z,7.02
2022-12-31T17:56:20.660Z,7.03
2022-12-31T17:58:51.291Z,6.89
2022-12-31T18:01:22.186Z,6.85
2022-12-31T18:03:50.234Z,6.79
2022-12-31T18:06:19.419Z,6.74
2022-12-31T18:08:46.771Z,6.87
2022-12-31T18:11:20.598Z,6.96
2022-12-31T18:13:47.973Z,7.02
2022-12-31T18:16:15.579Z,7.04
2022-12-31T18:18:43.768Z,6.96
2022-12-31T18:21:21.938Z,6.95
2022-12-31T18:23:49.958Z,6.91
2022-12-31T18:26:22.365Z,7.01
2022-12-31T18:28:50.316Z,6.91
2022-12-31T18:31:21.075Z,6.81
2022-12-31T18:33:48.875Z,6.70
2022-12-31T18:36:17.770Z,6.54
2022-12-31T18:38:45.314Z,6.49
2022-12-31T18:41:24.685Z,6.32
2022-12-31T18:43:52.194Z,6.33
2022-12-31T18:46:21.809Z,6.30
2022-12-31T18:48:48.976Z,6.20
2022-12-31T18:51:18.720Z,6.19
2022-12-31T18:53:46.028Z,6.20
2022-12-31T18:56:15.226Z,6.24
2022-12-31T18:58:42.980Z,6.28
2022-12-31T19:01:22.387Z,6.28
2022-12-31T19:03:49.808Z,6.22
2022-12-31T19:06:16.873Z,6.22
2022-12-31T19:08:43.948Z,6.11
2022-12-31T19:11:15.126Z,6.05
2022-12-31T19:13:42.511Z,6.13
2022-12-31T19:16:10.368Z,6.26
2022-12-31T19:18:37.774Z,6.19
2022-12-31T19:21:04.985Z,6.13
2022-12-31T19:23:32.101Z,6.08
2022-12-31T19:25:59.509Z,5.90
2022-12-31T19:28:27.673Z,5.90
2022-12-31T19:30:54.982Z,5.91
2022-12-31T19:33:22.586Z,5.94
2022-12-31T19:35:49.725Z,5.94
2022-12-31T19:38:17.680Z,5.82
2022-12-31T19:40:45.779Z,5.75
2022-12-31T19:43:14.564Z,5.70
2022-12-31T19:45:43.004Z,5.67
2022-12-31T19:48:12.595Z,5.65
2022-12-31T19:50:47.504Z,5.65
2022-12-31T19:53:18.180Z,5.71
2022-12-31T19:55:45.436Z,5.75
2022-12-31T19:58:18.113Z,5.79
2022-12-31T20:00:53.702Z,5.85
2022-12-31T20:03:23.826Z,5.69
2022-12-31T20:05:51.116Z,5.65
2022-12-31T20:08:20.290Z,5.67
2022-12-31T20:10:47.885Z,5.74
2022-12-31T20:13:15.038Z,5.80
2022-12-31T20:15:47.610Z,5.80
2022-12-31T20:18:20.906Z,5.90
2022-12-31T20:20:55.292Z,6.08
2022-12-31T20:23:23.408Z,6.16
2022-12-31T20:25:58.050Z,6.16
2022-12-31T20:28:25.744Z,6.10
2022-12-31T20:30:53.049Z,6.05
2022-12-31T20:33:20.485Z,5.99
2022-12-31T20:35:48.248Z,6.00
2022-12-31T20:38:15.501Z,5.92
2022-12-31T20:40:46.703Z,5.88
2022-12-31T20:43:14.650Z,5.96
2022-12-31T20:45:41.978Z,6.08
2022-12-31T20:48:09.156Z,6.17
2022-12-31T20:50:36.631Z,6.18
2022-12-31T20:53:03.768Z,6.16
2022-12-31T20:55:32.258Z,6.11
2022-12-31T20:58:00.602Z,5.98
2022-12-31T21:00:27.747Z,5.91
2022-12-31T21:03:04.929Z,5.94
2022-12-31T21:05:35.936Z,5.89
2022-12-31T21:08:03.403Z,5.96
2022-12-31T21:10:30.559Z,5.99
2022-12-31T21:12:57.995Z,5.71
2022-12-31T21:15:25.153Z,5.77
2022-12-31T21:17:52.371Z,5.73
2022-12-31T21:20:19.805Z,5.69
2022-12-31T21:22:49.753Z,5.64
2022-12-31T21:25:16.954Z,5.59
2022-12-31T21:27:47.136Z,5.53
2022-12-31T21:30:19.040Z,5.66
2022-12-31T21:32:47.321Z,5.48
2022-12-31T21:38:03.957Z,5.29
2022-12-31T21:40:31.689Z,5.38
2022-12-31T21:42:59.077Z,5.35
2022-12-31T21:45:26.612Z,5.35
2022-12-31T21:48:12.172Z,5.20
2022-12-31T21:50:39.615Z,5.16
2022-12-31T21:53:06.742Z,5.14
2022-12-31T21:55:52.575Z,5.23
2022-12-31T21:58:28.127Z,5.21
2022-12-31T22:01:15.293Z,5.18
2022-12-31T22:03:43.643Z,5.16
2022-12-31T22:06:14.298Z,5.08
2022-12-31T22:08:43.047Z,5.09
2022-12-31T22:11:11.937Z,5.17
2022-12-31T22:13:39.309Z,5.21
2022-12-31T22:16:07.449Z,5.16
2022-12-31T22:18:39.008Z,5.16
2022-12-31T22:21:21.273Z,5.13
2022-12-31T22:23:52.114Z,5.09
2022-12-31T22:26:23.482Z,5.12
2022-12-31T22:28:51.434Z,5.10
2022-12-31T22:31:21.154Z,5.06
2022-12-31T22:33:48.850Z,5.07
2022-12-31T22:36:19.380Z,5.11
2022-12-31T22:38:46.892Z,5.08
2022-12-31T22:41:16.234Z,5.15
2022-12-31T22:43:46.232Z,5.08
2022-12-31T22:46:18.758Z,5.06
2022-12-31T22:48:46.773Z,5.06
2022-12-31T22:51:15.288Z,5.05
2022-12-31T22:53:43.559Z,5.13
2022-12-31T22:56:13.582Z,5.08
2022-12-31T22:58:41.054Z,5.08
2022-12-31T23:01:15.459Z,5.04
2022-12-31T23:03:43.161Z,5.02
2022-12-31T23:06:10.502Z,4.96
2022-12-31T23:08:37.662Z,4.88
2022-12-31T23:11:11.305Z,4.97
2022-12-31T23:13:58.727Z,4.97
2022-12-31T23:16:46.534Z,5.00
2022-12-31T23:19:34.341Z,4.91
2022-12-31T23:22:23.362Z,4.95
2022-12-31T23:24:50.508Z,4.96
2022-12-31T23:27:17.939Z,4.96
2022-12-31T23:29:47.510Z,4.96
2022-12-31T23:32:15.934Z,4.88
2022-12-31T23:34:44.592Z,4.77
2022-12-31T23:37:13.269Z,4.75
2022-12-31T23:39:40.617Z,4.77
2022-12-31T23:42:08.458Z,4.58
2022-12-31T23:44:35.672Z,4.62
2022-12-31T23:47:02.886Z,4.69
2022-12-31T23:49:30.445Z,4.70
2022-12-31T23:51:57.579Z,4.57
2022-12-31T23:54:24.717Z,4.62
2022-12-31T23:56:52.139Z,4.61
2022-12-31T23:59:19.350Z,4.58
